createdAt,value
2022-10-16T00:01:36.308Z,1.08
2022-10-16T00:04:04.007Z,1.00
2022-10-16T00:06:31.722Z,1.00
2022-10-16T00:08:59.030Z,1.00
2022-10-16T00:11:29.502Z,1.00
2022-10-16T00:13:59.285Z,0.93
2022-10-16T00:16:27.246Z,1.00
2022-10-16T00:18:54.603Z,1.27
2022-10-16T00:21:27.486Z,1.05
2022-10-16T00:24:00.190Z,0.80
2022-10-16T00:26:28.552Z,1.00
2022-10-16T00:28:55.472Z,0.93
2022-10-16T00:31:23.176Z,0.90
2022-10-16T00:33:50.750Z,0.95
2022-10-16T00:36:19.692Z,0.70
2022-10-16T00:38:47.815Z,0.82
2022-10-16T00:41:18.723Z,0.70
2022-10-16T00:43:45.475Z,0.80
2022-10-16T00:46:19.112Z,0.93
2022-10-16T00:48:56.279Z,0.80
2022-10-16T00:51:27.547Z,0.70
2022-10-16T00:53:56.107Z,0.95
2022-10-16T00:56:23.037Z,0.90
2022-10-16T00:58:50.101Z,1.00
2022-10-16T01:01:16.974Z,0.73
2022-10-16T01:03:43.848Z,0.80
2022-10-16T01:06:16.506Z,0.93
2022-10-16T01:08:58.159Z,0.65
2022-10-16T01:11:56.783Z,0.98
2022-10-16T01:14:59.496Z,0.70
2022-10-16T01:17:33.682Z,1.00
2022-10-16T01:20:24.499Z,0.82
2022-10-16T01:23:22.251Z,0.80
2022-10-16T01:26:01.869Z,0.85
2022-10-16T01:28:39.629Z,0.63
2022-10-16T01:31:06.963Z,0.77
2022-10-16T01:33:46.104Z,0.90
2022-10-16T01:36:25.625Z,0.88
2022-10-16T01:38:55.446Z,0.93
2022-10-16T01:41:34.373Z,1.10
2022-10-16T01:44:06.601Z,1.02
2022-10-16T01:46:36.819Z,0.90
2022-10-16T01:49:05.016Z,0.73
2022-10-16T01:51:32.744Z,0.80
2022-10-16T01:54:02.514Z,0.90
2022-10-16T01:56:30.707Z,0.90
2022-10-16T01:59:03.877Z,0.98
2022-10-16T02:04:04.507Z,0.70
2022-10-16T02:06:31.348Z,0.68
2022-10-16T02:08:58.218Z,0.80
2022-10-16T02:11:25.460Z,0.70
2022-10-16T02:14:05.709Z,0.80
2022-10-16T02:16:41.365Z,0.75
2022-10-16T02:19:14.059Z,0.60
2022-10-16T02:21:57.492Z,0.60
2022-10-16T02:27:19.016Z,0.50
2022-10-16T02:29:51.332Z,1.00
2022-10-16T02:32:22.420Z,0.70
2022-10-16T02:34:50.914Z,0.43
2022-10-16T02:37:19.612Z,0.73
2022-10-16T02:39:46.447Z,0.63
2022-10-16T02:42:14.800Z,0.65
2022-10-16T02:44:41.630Z,0.75
2022-10-16T02:47:08.446Z,0.90
2022-10-16T02:49:35.198Z,0.70
2022-10-16T02:52:02.045Z,0.80
2022-10-16T02:54:28.783Z,0.70
2022-10-16T02:56:55.555Z,1.00
2022-10-16T02:59:22.330Z,0.70
2022-10-16T03:01:49.069Z,0.70
2022-10-16T03:04:16.060Z,0.70
2022-10-16T03:06:42.906Z,0.70
2022-10-16T03:09:09.761Z,0.70
2022-10-16T03:11:36.461Z,1.02
2022-10-16T03:14:03.266Z,0.90
2022-10-16T03:16:30.158Z,0.80
2022-10-16T03:18:56.902Z,0.68
2022-10-16T03:21:23.781Z,1.00
2022-10-16T03:23:50.493Z,0.80
2022-10-16T03:26:17.205Z,0.68
2022-10-16T03:28:44.027Z,0.70
2022-10-16T03:31:10.791Z,0.70
2022-10-16T03:33:37.590Z,0.70
2022-10-16T03:36:04.487Z,0.90
2022-10-16T03:38:31.396Z,0.75
2022-10-16T03:40:58.146Z,0.80
2022-10-16T03:43:25.002Z,0.80
2022-10-16T03:45:52.523Z,0.75
2022-10-16T03:48:20.708Z,0.90
2022-10-16T03:50:49.240Z,0.95
2022-10-16T03:53:16.290Z,0.80
2022-10-16T03:55:44.108Z,0.90
2022-10-16T03:58:11.197Z,0.70
2022-10-16T04:00:45.088Z,0.90
2022-10-16T04:03:12.604Z,0.90
2022-10-16T04:05:39.448Z,0.60
2022-10-16T04:08:06.194Z,0.68
2022-10-16T04:10:33.138Z,0.77
2022-10-16T04:12:59.918Z,0.73
2022-10-16T04:15:27.156Z,0.60
2022-10-16T04:17:53.855Z,0.80
2022-10-16T04:20:20.674Z,0.93
2022-10-16T04:22:47.412Z,0.70
2022-10-16T04:25:14.276Z,0.80
2022-10-16T04:27:43.662Z,0.80
2022-10-16T04:30:12.971Z,0.80
2022-10-16T04:32:40.108Z,1.00
2022-10-16T04:35:07.205Z,1.23
2022-10-16T04:37:33.962Z,0.93
2022-10-16T04:40:00.684Z,0.90
2022-10-16T04:42:27.475Z,1.25
2022-10-16T04:44:54.235Z,0.98
2022-10-16T04:47:21.127Z,1.00
2022-10-16T04:49:47.850Z,1.00
2022-10-16T04:52:14.561Z,1.00
2022-10-16T04:54:41.325Z,0.98
2022-10-16T04:57:08.119Z,1.17
2022-10-16T04:59:34.881Z,0.80
2022-10-16T05:02:01.623Z,0.90
2022-10-16T05:04:28.367Z,0.80
2022-10-16T05:06:55.251Z,0.98
2022-10-16T05:09:22.095Z,1.00
2022-10-16T05:11:48.819Z,1.00
2022-10-16T05:14:15.542Z,0.90
2022-10-16T05:16:42.419Z,0.90
2022-10-16T05:19:26.657Z,0.70
2022-10-16T05:21:54.327Z,1.02
2022-10-16T05:24:21.097Z,1.00
2022-10-16T05:26:48.030Z,0.90
2022-10-16T05:29:14.994Z,0.80
2022-10-16T05:31:41.900Z,1.00
2022-10-16T05:34:08.662Z,0.77
2022-10-16T05:36:35.711Z,1.00
2022-10-16T05:39:02.559Z,0.88
2022-10-16T05:41:29.343Z,0.98
2022-10-16T05:43:56.160Z,1.08
2022-10-16T05:46:22.987Z,0.90
2022-10-16T05:48:52.268Z,0.82
2022-10-16T05:51:18.979Z,0.90
2022-10-16T05:53:45.751Z,1.10
2022-10-16T05:56:13.745Z,0.90
2022-10-16T05:58:45.474Z,1.20
2022-10-16T06:01:14.703Z,1.20
2022-10-16T06:03:41.757Z,1.50
2022-10-16T06:06:20.280Z,1.25
2022-10-16T06:08:48.620Z,1.20
2022-10-16T06:11:21.172Z,1.10
2022-10-16T06:13:55.174Z,1.38
2022-10-16T06:16:22.152Z,0.93
2022-10-16T06:18:52.543Z,1.30
2022-10-16T06:21:22.847Z,1.40
2022-10-16T06:23:49.653Z,1.02
2022-10-16T06:26:19.388Z,0.77
2022-10-16T06:28:46.665Z,0.93
2022-10-16T06:31:14.236Z,1.10
2022-10-16T06:33:41.604Z,1.00
2022-10-16T06:36:13.743Z,1.10
2022-10-16T06:38:40.984Z,1.10
2022-10-16T06:41:08.751Z,1.20
2022-10-16T06:43:36.285Z,0.98
2022-10-16T06:46:04.639Z,0.90
2022-10-16T06:48:31.771Z,0.98
2022-10-16T06:53:40.012Z,1.40
2022-10-16T06:56:17.511Z,1.35
2022-10-16T06:58:44.844Z,0.90
2022-10-16T07:01:12.569Z,0.90
2022-10-16T07:03:41.203Z,1.10
2022-10-16T07:06:10.282Z,1.15
2022-10-16T07:08:39.525Z,1.15
2022-10-16T07:11:11.448Z,1.20
2022-10-16T07:13:39.599Z,0.90
2022-10-16T07:16:08.048Z,0.90
2022-10-16T07:18:35.061Z,1.25
2022-10-16T07:21:10.383Z,1.02
2022-10-16T07:23:37.571Z,1.20
2022-10-16T07:26:05.156Z,1.40
2022-10-16T07:28:33.180Z,1.02
2022-10-16T07:31:05.498Z,1.90
2022-10-16T07:33:33.506Z,1.30
2022-10-16T07:36:00.549Z,1.10
2022-10-16T07:38:27.463Z,1.30
2022-10-16T07:41:05.573Z,1.42
2022-10-16T07:43:33.059Z,1.00
2022-10-16T07:46:02.587Z,0.88
2022-10-16T07:48:34.620Z,0.70
2022-10-16T07:51:03.371Z,0.77
2022-10-16T07:53:30.303Z,1.00
2022-10-16T07:56:01.883Z,0.80
2022-10-16T07:58:29.545Z,1.17
2022-10-16T08:00:56.911Z,0.85
2022-10-16T08:03:24.488Z,1.00
2022-10-16T08:05:51.608Z,1.10
2022-10-16T08:08:19.576Z,1.30
2022-10-16T08:10:46.654Z,1.40
2022-10-16T08:13:16.383Z,1.08
2022-10-16T08:15:44.896Z,0.90
2022-10-16T08:18:13.253Z,0.80
2022-10-16T08:20:40.964Z,1.00
2022-10-16T08:23:07.990Z,0.93
2022-10-16T08:25:38.440Z,1.00
2022-10-16T08:28:06.955Z,0.90
2022-10-16T08:30:34.490Z,0.70
2022-10-16T08:33:01.563Z,0.73
2022-10-16T08:35:28.391Z,0.80
2022-10-16T08:37:55.239Z,0.90
2022-10-16T08:40:33.664Z,0.90
2022-10-16T08:43:24.706Z,0.70
2022-10-16T08:46:12.849Z,0.80
2022-10-16T08:48:47.121Z,0.73
2022-10-16T08:51:24.146Z,0.70
2022-10-16T08:54:00.164Z,0.80
2022-10-16T08:56:27.567Z,0.80
2022-10-16T08:58:58.222Z,1.15
2022-10-16T09:01:50.491Z,1.00
2022-10-16T09:04:17.198Z,0.90
2022-10-16T09:06:58.670Z,0.90
2022-10-16T09:09:37.324Z,0.60
2022-10-16T09:12:12.606Z,0.80
2022-10-16T09:14:53.993Z,0.93
2022-10-16T09:17:38.899Z,0.85
2022-10-16T09:20:27.683Z,1.05
2022-10-16T09:23:11.248Z,0.82
2022-10-16T09:25:42.126Z,0.90
2022-10-16T09:28:10.671Z,1.10
2022-10-16T09:30:39.376Z,0.90
2022-10-16T09:33:07.643Z,1.20
2022-10-16T09:35:42.214Z,0.63
2022-10-16T09:38:09.330Z,0.80
2022-10-16T09:40:39.377Z,1.00
2022-10-16T09:43:18.076Z,2.00
2022-10-16T09:45:54.040Z,0.60
2022-10-16T09:48:21.521Z,1.17
2022-10-16T09:51:01.338Z,0.70
2022-10-16T09:53:42.086Z,0.90
2022-10-16T09:56:14.617Z,0.80
2022-10-16T09:58:50.298Z,0.70
2022-10-16T10:01:17.226Z,0.60
2022-10-16T10:03:45.850Z,0.60
2022-10-16T10:06:25.845Z,0.70
2022-10-16T10:09:00.583Z,0.70
2022-10-16T10:11:43.755Z,0.70
2022-10-16T10:14:16.763Z,0.95
2022-10-16T10:16:43.526Z,0.63
2022-10-16T10:19:32.011Z,0.88
2022-10-16T10:21:59.701Z,1.10
2022-10-16T10:24:26.469Z,0.80
2022-10-16T10:27:17.790Z,0.95
2022-10-16T10:29:58.629Z,0.70
2022-10-16T10:32:31.178Z,0.68
2022-10-16T10:35:22.279Z,0.88
2022-10-16T10:38:01.074Z,0.70
2022-10-16T10:40:46.594Z,0.55
2022-10-16T10:43:41.603Z,0.65
2022-10-16T10:46:17.070Z,1.00
2022-10-16T10:48:52.862Z,0.82
2022-10-16T10:51:47.909Z,0.82
2022-10-16T10:54:24.201Z,0.80
2022-10-16T10:57:11.773Z,0.70
2022-10-16T11:00:03.058Z,0.85
2022-10-16T11:02:39.074Z,0.70
2022-10-16T11:05:15.259Z,0.70
2022-10-16T11:08:08.030Z,0.60
2022-10-16T11:11:01.331Z,0.80
2022-10-16T11:13:40.698Z,1.17
2022-10-16T11:16:34.141Z,0.95
2022-10-16T11:19:23.489Z,0.80
2022-10-16T11:22:03.790Z,0.80
2022-10-16T11:24:40.948Z,0.70
2022-10-16T11:27:12.939Z,1.08
2022-10-16T11:29:57.150Z,0.60
2022-10-16T11:32:29.978Z,0.50
2022-10-16T11:35:09.406Z,0.98
2022-10-16T11:37:44.462Z,0.70
2022-10-16T11:40:26.200Z,0.80
2022-10-16T11:46:10.303Z,0.80
2022-10-16T11:49:01.112Z,0.80
2022-10-16T11:51:53.013Z,0.70
2022-10-16T11:54:42.459Z,0.68
2022-10-16T11:57:24.503Z,0.60
2022-10-16T11:59:58.542Z,0.80
2022-10-16T12:02:35.243Z,0.80
2022-10-16T12:05:10.566Z,0.70
2022-10-16T12:07:51.894Z,0.68
2022-10-16T12:10:29.220Z,0.70
2022-10-16T12:12:57.634Z,1.08
2022-10-16T12:15:54.045Z,0.82
2022-10-16T12:18:25.587Z,0.70
2022-10-16T12:21:00.130Z,0.70
2022-10-16T12:23:27.323Z,1.02
2022-10-16T12:25:59.674Z,0.80
2022-10-16T12:28:37.326Z,0.83
2022-10-16T12:31:10.982Z,0.90
2022-10-16T12:33:43.651Z,0.90
2022-10-16T12:36:27.384Z,0.80
2022-10-16T12:38:54.871Z,0.80
2022-10-16T12:41:28.380Z,0.77
2022-10-16T12:43:55.262Z,0.80
2022-10-16T12:46:37.880Z,0.80
2022-10-16T12:49:29.977Z,0.80
2022-10-16T12:51:57.708Z,0.88
2022-10-16T12:54:31.216Z,0.75
2022-10-16T12:57:10.244Z,0.90
2022-10-16T12:59:47.981Z,0.80
2022-10-16T13:02:36.782Z,0.70
2022-10-16T13:05:17.845Z,0.80
2022-10-16T13:08:15.730Z,0.80
2022-10-16T13:11:27.142Z,1.13
2022-10-16T13:14:36.991Z,0.88
2022-10-16T13:17:42.353Z,0.70
2022-10-16T13:20:36.847Z,0.82
2022-10-16T13:23:32.388Z,0.80
2022-10-16T13:26:23.783Z,0.98
2022-10-16T13:28:50.958Z,0.82
2022-10-16T13:31:25.377Z,0.80
2022-10-16T13:33:59.771Z,1.00
2022-10-16T13:36:35.283Z,0.85
2022-10-16T13:39:15.621Z,0.90
2022-10-16T13:41:42.588Z,0.68
2022-10-16T13:44:22.074Z,0.80
2022-10-16T13:47:00.213Z,1.00
2022-10-16T13:49:27.414Z,0.80
2022-10-16T13:51:59.302Z,0.90
2022-10-16T13:54:27.967Z,1.00
2022-10-16T13:57:03.262Z,0.90
2022-10-16T13:59:39.872Z,1.02
2022-10-16T14:02:26.484Z,0.70
2022-10-16T14:04:54.942Z,0.70
2022-10-16T14:07:26.553Z,0.85
2022-10-16T14:09:54.827Z,0.95
2022-10-16T14:12:25.560Z,0.88
2022-10-16T14:14:56.466Z,0.93
2022-10-16T14:17:26.270Z,1.13
2022-10-16T14:19:59.591Z,1.00
2022-10-16T14:22:31.687Z,0.90
2022-10-16T14:24:58.643Z,0.90
2022-10-16T14:27:35.222Z,1.00
2022-10-16T14:30:22.728Z,0.88
2022-10-16T14:33:05.395Z,0.90
2022-10-16T14:35:35.530Z,0.90
2022-10-16T14:38:04.259Z,1.00
2022-10-16T14:40:33.698Z,1.08
2022-10-16T14:43:02.144Z,1.00
2022-10-16T14:45:32.228Z,1.10
2022-10-16T14:48:02.395Z,1.00
2022-10-16T14:50:29.683Z,0.80
2022-10-16T14:52:56.651Z,1.00
2022-10-16T14:57:51.406Z,0.90
2022-10-16T15:00:24.182Z,1.10
2022-10-16T15:02:51.479Z,1.17
2022-10-16T15:05:25.329Z,1.10
2022-10-16T15:07:55.662Z,1.00
2022-10-16T15:10:24.776Z,1.00
2022-10-16T15:12:51.540Z,0.88
2022-10-16T15:15:24.072Z,0.88
2022-10-16T15:18:01.242Z,0.90
2022-10-16T15:20:29.701Z,0.80
2022-10-16T15:22:56.589Z,0.70
2022-10-16T15:25:43.386Z,0.77
2022-10-16T15:28:11.579Z,0.77
2022-10-16T15:30:39.201Z,1.88
2022-10-16T15:33:10.846Z,0.90
2022-10-16T15:35:37.618Z,1.00
2022-10-16T15:38:04.450Z,1.92
2022-10-16T15:40:31.230Z,1.48
2022-10-16T15:42:58.381Z,1.10
2022-10-16T15:45:25.104Z,1.27
2022-10-16T15:47:51.854Z,0.88
2022-10-16T15:50:18.874Z,0.80
2022-10-16T15:52:45.663Z,0.80
2022-10-16T15:55:14.397Z,1.00
2022-10-16T15:57:43.608Z,1.33
2022-10-16T16:00:14.062Z,0.88
2022-10-16T16:02:42.554Z,0.90
2022-10-16T16:05:10.794Z,1.30
2022-10-16T16:07:38.603Z,1.30
2022-10-16T16:10:08.077Z,1.33
2022-10-16T16:12:35.811Z,1.10
2022-10-16T16:15:05.037Z,1.50
2022-10-16T16:17:33.878Z,1.40
2022-10-16T16:20:00.770Z,1.23
2022-10-16T16:22:28.534Z,1.08
2022-10-16T16:24:55.478Z,1.38
2022-10-16T16:27:22.296Z,1.30
2022-10-16T16:29:49.097Z,0.98
2022-10-16T16:32:15.849Z,1.27
2022-10-16T16:34:42.607Z,1.20
2022-10-16T16:37:09.585Z,1.30
2022-10-16T16:39:36.312Z,1.40
2022-10-16T16:42:05.006Z,1.42
2022-10-16T16:44:31.899Z,1.58
2022-10-16T16:46:58.762Z,1.23
2022-10-16T16:49:25.876Z,1.30
2022-10-16T16:51:54.934Z,1.25
2022-10-16T16:54:21.987Z,1.40
2022-10-16T16:56:49.281Z,1.25
2022-10-16T16:59:22.731Z,1.25
2022-10-16T17:01:55.640Z,1.60
2022-10-16T17:04:23.691Z,1.40
2022-10-16T17:06:50.426Z,1.95
2022-10-16T17:09:17.567Z,1.25
2022-10-16T17:11:45.515Z,1.50
2022-10-16T17:14:12.597Z,1.42
2022-10-16T17:16:40.497Z,1.40
2022-10-16T17:19:10.988Z,1.73
2022-10-16T17:21:37.984Z,1.52
2022-10-16T17:24:06.206Z,1.30
2022-10-16T17:26:33.321Z,1.70
2022-10-16T17:29:02.200Z,1.50
2022-10-16T17:31:36.842Z,1.60
2022-10-16T17:34:06.270Z,1.60
2022-10-16T17:36:35.685Z,1.40
2022-10-16T17:39:05.683Z,1.80
2022-10-16T17:41:33.093Z,1.48
2022-10-16T17:43:59.873Z,1.30
2022-10-16T17:46:26.995Z,1.45
2022-10-16T17:48:55.688Z,1.80
2022-10-16T17:51:29.114Z,2.20
2022-10-16T17:53:58.776Z,2.00
2022-10-16T17:56:26.966Z,2.00
2022-10-16T17:58:56.045Z,2.03
2022-10-16T18:01:28.710Z,1.77
2022-10-16T18:04:05.100Z,1.95
2022-10-16T18:06:32.341Z,1.60
2022-10-16T18:09:00.207Z,2.03
2022-10-16T18:11:28.294Z,1.70
2022-10-16T18:13:56.602Z,1.80
2022-10-16T18:16:24.695Z,2.10
2022-10-16T18:18:51.693Z,2.05
2022-10-16T18:21:19.737Z,1.90
2022-10-16T18:23:50.984Z,1.77
2022-10-16T18:26:20.387Z,2.03
2022-10-16T18:28:47.622Z,2.30
2022-10-16T18:31:16.933Z,2.17
2022-10-16T18:33:48.145Z,1.92
2022-10-16T18:36:16.021Z,2.30
2022-10-16T18:38:43.267Z,2.00
2022-10-16T18:41:10.534Z,2.67
2022-10-16T18:43:38.545Z,2.28
2022-10-16T18:46:07.713Z,2.08
2022-10-16T18:48:34.993Z,1.70
2022-10-16T18:51:11.050Z,2.00
2022-10-16T18:53:39.573Z,1.83
2022-10-16T18:56:07.168Z,2.50
2022-10-16T18:58:35.793Z,2.97
2022-10-16T19:01:08.299Z,2.08
2022-10-16T19:03:35.708Z,2.10
2022-10-16T19:06:04.500Z,2.20
2022-10-16T19:08:33.681Z,2.00
2022-10-16T19:11:08.072Z,4.00
2022-10-16T19:13:34.906Z,3.08
2022-10-16T19:16:21.002Z,2.45
2022-10-16T19:18:49.461Z,2.55
2022-10-16T19:21:16.744Z,2.08
2022-10-16T19:23:43.789Z,2.70
2022-10-16T19:26:16.654Z,1.95
2022-10-16T19:28:44.484Z,2.20
2022-10-16T19:31:15.115Z,2.17
2022-10-16T19:33:42.606Z,1.85
2022-10-16T19:36:19.808Z,1.63
2022-10-16T19:38:47.529Z,2.15
2022-10-16T19:41:18.726Z,2.30
2022-10-16T19:43:46.556Z,2.80
2022-10-16T19:46:19.194Z,2.13
2022-10-16T19:48:46.487Z,2.00
2022-10-16T19:51:16.738Z,2.10
2022-10-16T19:53:45.082Z,1.65
2022-10-16T19:56:21.409Z,1.58
2022-10-16T19:58:49.059Z,1.60
2022-10-16T20:01:16.288Z,1.92
2022-10-16T20:03:47.983Z,1.80
2022-10-16T20:06:15.934Z,1.50
2022-10-16T20:08:45.632Z,1.60
2022-10-16T20:11:21.178Z,1.80
2022-10-16T20:13:48.107Z,1.63
2022-10-16T20:16:17.772Z,2.00
2022-10-16T20:18:45.153Z,1.60
2022-10-16T20:21:14.211Z,2.65
2022-10-16T20:23:41.797Z,3.35
2022-10-16T20:26:11.474Z,2.60
2022-10-16T20:28:40.891Z,2.20
2022-10-16T20:31:12.989Z,3.20
2022-10-16T20:33:39.866Z,5.00
2022-10-16T20:36:11.290Z,3.53
2022-10-16T20:38:38.477Z,2.47
2022-10-16T20:41:07.176Z,3.13
2022-10-16T20:43:34.203Z,2.63
2022-10-16T20:46:03.559Z,1.98
2022-10-16T20:48:30.502Z,1.70
2022-10-16T20:50:57.459Z,1.52
2022-10-16T20:53:24.201Z,1.98
2022-10-16T20:55:51.063Z,1.55
2022-10-16T20:58:17.973Z,1.60
2022-10-16T21:00:44.867Z,2.13
2022-10-16T21:03:12.336Z,1.70
2022-10-16T21:05:43.025Z,1.75
2022-10-16T21:08:10.250Z,1.88
2022-10-16T21:10:37.079Z,1.80
2022-10-16T21:13:03.959Z,2.13
2022-10-16T21:15:30.717Z,1.60
2022-10-16T21:17:57.624Z,1.92
2022-10-16T21:20:24.366Z,1.58
2022-10-16T21:22:51.216Z,1.80
2022-10-16T21:25:18.279Z,1.90
2022-10-16T21:27:45.044Z,1.60
2022-10-16T21:30:11.923Z,1.70
2022-10-16T21:32:39.645Z,1.58
2022-10-16T21:35:07.243Z,2.00
2022-10-16T21:37:34.169Z,2.50
2022-10-16T21:40:01.063Z,1.85
2022-10-16T21:42:28.121Z,1.58
2022-10-16T21:44:55.355Z,1.98
2022-10-16T21:47:22.961Z,1.80
2022-10-16T21:49:49.798Z,1.83
2022-10-16T21:52:16.604Z,1.75
2022-10-16T21:54:43.386Z,1.48
2022-10-16T21:57:10.118Z,1.60
2022-10-16T21:59:36.910Z,1.65
2022-10-16T22:02:03.747Z,1.67
2022-10-16T22:04:30.602Z,1.73
2022-10-16T22:06:57.430Z,1.40
2022-10-16T22:09:24.322Z,1.48
2022-10-16T22:11:51.233Z,1.48
2022-10-16T22:14:20.057Z,2.10
2022-10-16T22:16:47.552Z,1.55
2022-10-16T22:19:15.888Z,1.92
2022-10-16T22:21:43.856Z,1.15
2022-10-16T22:24:10.647Z,1.30
2022-10-16T22:26:38.225Z,1.50
2022-10-16T22:29:06.201Z,1.65
2022-10-16T22:31:33.530Z,1.70
2022-10-16T22:34:05.095Z,1.42
2022-10-16T22:36:32.037Z,1.13
2022-10-16T22:38:59.318Z,1.15
2022-10-16T22:41:26.334Z,2.55
2022-10-16T22:43:53.939Z,1.48
2022-10-16T22:46:29.279Z,1.10
2022-10-16T22:48:56.828Z,1.20
2022-10-16T22:51:25.065Z,1.15
2022-10-16T22:53:51.847Z,1.10
2022-10-16T22:56:20.090Z,1.27
2022-10-16T22:58:46.938Z,1.75
2022-10-16T23:01:18.417Z,1.33
2022-10-16T23:03:45.262Z,1.38
2022-10-16T23:06:12.122Z,1.38
2022-10-16T23:08:38.899Z,0.93
2022-10-16T23:11:07.941Z,1.30
2022-10-16T23:13:45.591Z,1.23
2022-10-16T23:16:15.637Z,1.33
2022-10-16T23:18:43.847Z,1.30
2022-10-16T23:21:13.749Z,1.20
2022-10-16T23:23:41.643Z,1.40
2022-10-16T23:26:10.505Z,1.90
2022-10-16T23:28:37.889Z,1.30
2022-10-16T23:31:05.784Z,1.38
2022-10-16T23:33:33.868Z,1.10
2022-10-16T23:36:05.228Z,1.73
2022-10-16T23:38:32.088Z,1.17
2022-10-16T23:40:58.948Z,1.48
2022-10-16T23:43:25.969Z,1.40
2022-10-16T23:45:52.721Z,1.70
2022-10-16T23:48:19.495Z,1.63
2022-10-16T23:50:46.277Z,1.80
2022-10-16T23:53:13.362Z,1.95
2022-10-16T23:55:40.105Z,1.42
2022-10-16T23:58:06.871Z,1.33
